createdAt,value
2017-06-01T00:01:28.548Z,7.44
2017-06-01T00:03:55.633Z,8.08
2017-06-01T00:06:22.704Z,6.62
2017-06-01T00:08:49.069Z,7.98
2017-06-01T00:11:16.149Z,6.48
2017-06-01T00:13:43.227Z,6.44
2017-06-01T00:16:11.735Z,7.94
2017-06-01T00:18:38.828Z,5.04
2017-06-01T00:21:05.897Z,5.88
2017-06-01T00:23:33.013Z,6.36
2017-06-01T00:26:00.082Z,5.24
2017-06-01T00:28:27.161Z,6.32
2017-06-01T00:30:54.285Z,5.70
2017-06-01T00:33:21.562Z,5.76
2017-06-01T00:35:48.673Z,5.54
2017-06-01T00:38:15.824Z,5.48
2017-06-01T00:40:42.899Z,5.56
2017-06-01T00:43:09.998Z,6.30
2017-06-01T00:45:37.122Z,6.16
2017-06-01T00:48:05.169Z,5.78
2017-06-01T00:50:32.249Z,4.52
2017-06-01T00:53:14.335Z,5.82
2017-06-01T00:55:41.422Z,6.36
2017-06-01T00:58:08.520Z,5.88
2017-06-01T01:00:35.629Z,6.20
2017-06-01T01:03:11.401Z,5.08
2017-06-01T01:05:38.610Z,6.86
2017-06-01T01:08:05.685Z,5.66
2017-06-01T01:10:32.757Z,5.52
2017-06-01T01:12:59.982Z,6.02
2017-06-01T01:15:27.101Z,5.32
2017-06-01T01:18:09.249Z,6.52
2017-06-01T01:20:36.497Z,5.62
2017-06-01T01:23:03.585Z,5.20
2017-06-01T01:25:30.696Z,6.00
2017-06-01T01:27:57.802Z,5.58
2017-06-01T01:30:24.907Z,5.82
2017-06-01T01:32:52.034Z,6.18
2017-06-01T01:35:19.187Z,5.96
2017-06-01T01:37:46.293Z,5.94
2017-06-01T01:40:13.442Z,5.74
2017-06-01T01:42:40.542Z,7.00
2017-06-01T01:45:07.642Z,5.72
2017-06-01T01:47:34.773Z,6.04
2017-06-01T01:50:01.860Z,5.86
2017-06-01T01:52:28.981Z,5.32
2017-06-01T01:54:56.145Z,5.60
2017-06-01T01:57:23.244Z,4.18
2017-06-01T01:59:50.348Z,4.88
2017-06-01T02:02:17.484Z,4.70
2017-06-01T02:04:44.574Z,4.18
2017-06-01T02:07:11.693Z,4.70
2017-06-01T02:09:38.827Z,4.68
2017-06-01T02:12:12.902Z,4.78
2017-06-01T02:14:40.033Z,4.70
2017-06-01T02:17:07.135Z,4.04
2017-06-01T02:19:34.231Z,4.22
2017-06-01T02:22:12.233Z,4.34
2017-06-01T02:24:39.337Z,4.02
2017-06-01T02:27:06.429Z,4.38
2017-06-01T02:29:33.554Z,4.46
2017-06-01T02:32:00.753Z,4.06
2017-06-01T02:34:27.854Z,4.92
2017-06-01T02:36:55.664Z,5.92
2017-06-01T02:42:23.855Z,4.30
2017-06-01T02:44:50.964Z,4.26
2017-06-01T02:47:18.075Z,4.26
2017-06-01T02:49:45.205Z,4.16
2017-06-01T02:52:12.311Z,4.32
2017-06-01T02:54:39.438Z,4.90
2017-06-01T02:57:06.566Z,4.46
2017-06-01T02:59:48.609Z,4.50
2017-06-01T03:02:15.775Z,4.84
2017-06-01T03:04:42.873Z,4.98
2017-06-01T03:07:10.072Z,5.18
2017-06-01T03:09:37.198Z,4.62
2017-06-01T03:12:04.285Z,5.92
2017-06-01T03:14:31.391Z,4.10
2017-06-01T03:17:12.048Z,6.02
2017-06-01T03:19:39.136Z,5.48
2017-06-01T03:22:06.225Z,5.30
2017-06-01T03:24:33.349Z,4.88
2017-06-01T03:27:00.451Z,6.56
2017-06-01T03:29:27.608Z,4.10
2017-06-01T03:32:12.469Z,4.92
2017-06-01T03:34:39.562Z,5.50
2017-06-01T03:37:06.738Z,4.32
2017-06-01T03:39:33.874Z,4.70
2017-06-01T03:42:02.305Z,4.34
2017-06-01T03:44:29.409Z,4.88
2017-06-01T03:46:56.556Z,3.96
2017-06-01T03:49:23.663Z,5.02
2017-06-01T03:51:51.896Z,5.22
2017-06-01T03:54:19.825Z,5.42
2017-06-01T03:56:47.448Z,4.90
2017-06-01T04:02:16.226Z,5.64
2017-06-01T04:04:43.490Z,5.74
2017-06-01T04:07:10.931Z,5.58
2017-06-01T04:09:38.180Z,5.80
2017-06-01T04:12:05.413Z,4.66
2017-06-01T04:20:34.863Z,5.40
2017-06-01T04:23:02.600Z,5.54
2017-06-01T04:25:30.316Z,6.58
2017-06-01T04:28:11.142Z,6.38
2017-06-01T04:33:39.043Z,5.42
2017-06-01T04:36:06.146Z,5.54
2017-06-01T04:38:33.309Z,4.88
2017-06-01T04:41:00.477Z,4.40
2017-06-01T04:43:28.153Z,4.58
2017-06-01T04:45:55.267Z,4.48
2017-06-01T04:48:22.412Z,3.98
2017-06-01T04:50:49.527Z,4.08
2017-06-01T04:53:16.631Z,4.16
2017-06-01T04:55:43.765Z,4.02
2017-06-01T04:58:11.141Z,4.44
2017-06-01T05:00:38.234Z,4.32
2017-06-01T05:03:05.370Z,3.56
2017-06-01T05:05:32.650Z,4.18
2017-06-01T05:07:59.743Z,3.32
2017-06-01T05:10:26.882Z,4.50
2017-06-01T05:12:53.963Z,3.96
2017-06-01T05:15:21.055Z,4.46
2017-06-01T05:17:48.173Z,5.08
2017-06-01T05:20:15.260Z,4.30
2017-06-01T05:22:42.393Z,3.76
2017-06-01T05:25:09.498Z,5.70
2017-06-01T05:27:36.581Z,5.02
2017-06-01T05:30:03.697Z,4.54
2017-06-01T05:32:31.390Z,4.32
2017-06-01T05:34:58.546Z,3.98
2017-06-01T05:37:26.173Z,3.78
2017-06-01T05:40:13.690Z,3.74
2017-06-01T05:42:40.825Z,4.62
2017-06-01T05:45:07.964Z,4.52
2017-06-01T05:47:35.080Z,4.52
2017-06-01T05:50:02.300Z,3.64
2017-06-01T05:52:29.464Z,4.70
2017-06-01T05:54:56.561Z,5.44
2017-06-01T05:57:23.651Z,4.88
2017-06-01T05:59:50.798Z,5.76
2017-06-01T06:02:17.916Z,6.42
2017-06-01T06:04:45.009Z,5.02
2017-06-01T06:07:12.146Z,6.06
2017-06-01T06:09:39.240Z,5.62
2017-06-01T06:12:06.335Z,5.38
2017-06-01T06:14:33.465Z,5.48
2017-06-01T06:17:00.540Z,4.90
2017-06-01T06:19:27.812Z,4.22
2017-06-01T06:22:12.910Z,6.18
2017-06-01T06:25:11.540Z,4.50
2017-06-01T06:27:38.626Z,4.80
2017-06-01T06:30:12.489Z,4.98
2017-06-01T06:33:07.016Z,4.58
2017-06-01T06:35:34.135Z,4.64
2017-06-01T06:38:12.026Z,4.72
2017-06-01T06:43:40.100Z,3.84
2017-06-01T06:46:13.703Z,4.40
2017-06-01T06:48:40.883Z,4.82
2017-06-01T06:51:11.469Z,4.88
2017-06-01T06:53:38.590Z,3.92
2017-06-01T06:56:12.169Z,3.86
2017-06-01T07:01:41.181Z,4.40
2017-06-01T07:04:08.830Z,4.72
2017-06-01T07:06:35.924Z,4.04
2017-06-01T07:09:26.688Z,3.70
2017-06-01T07:11:53.771Z,3.26
2017-06-01T07:14:20.858Z,3.78
2017-06-01T07:20:13.203Z,3.52
2017-06-01T07:22:40.310Z,3.22
2017-06-01T07:25:07.385Z,3.28
2017-06-01T07:27:34.498Z,3.68
2017-06-01T07:33:12.476Z,3.30
2017-06-01T07:35:39.600Z,3.96
2017-06-01T07:38:06.694Z,2.94
2017-06-01T07:40:33.837Z,3.16
2017-06-01T07:43:00.938Z,3.82
2017-06-01T07:45:28.034Z,3.22
2017-06-01T07:48:12.797Z,3.42
2017-06-01T07:50:39.925Z,4.16
2017-06-01T07:53:07.029Z,2.90
2017-06-01T07:55:34.157Z,3.14
2017-06-01T07:58:01.295Z,3.68
2017-06-01T08:00:28.381Z,3.32
2017-06-01T08:03:12.839Z,2.92
2017-06-01T08:05:39.914Z,2.90
2017-06-01T08:08:13.857Z,4.86
2017-06-01T08:10:40.957Z,3.22
2017-06-01T08:13:11.829Z,2.90
2017-06-01T08:15:46.244Z,2.80
2017-06-01T08:18:13.377Z,3.16
2017-06-01T08:20:40.485Z,4.14
2017-06-01T08:23:07.714Z,3.12
2017-06-01T08:25:34.854Z,2.98
2017-06-01T08:28:02.004Z,3.90
2017-06-01T08:30:29.102Z,2.16
2017-06-01T08:32:56.245Z,4.04
2017-06-01T08:35:23.361Z,2.42
2017-06-01T08:38:05.426Z,3.26
2017-06-01T08:40:56.581Z,2.90
2017-06-01T08:46:24.681Z,2.76
2017-06-01T08:48:52.534Z,2.48
2017-06-01T08:51:19.621Z,3.08
2017-06-01T08:53:46.744Z,2.56
2017-06-01T08:56:13.891Z,2.64
2017-06-01T08:58:41.036Z,3.22
2017-06-01T09:01:08.134Z,2.84
2017-06-01T09:03:35.378Z,3.62
2017-06-01T09:06:02.495Z,2.72
2017-06-01T09:08:29.606Z,2.14
2017-06-01T09:10:56.764Z,3.06
2017-06-01T09:13:24.046Z,2.00
2017-06-01T09:15:51.165Z,3.20
2017-06-01T09:18:18.289Z,3.32
2017-06-01T09:20:56.174Z,2.52
2017-06-01T09:26:24.232Z,2.74
2017-06-01T09:28:51.327Z,2.62
2017-06-01T09:31:18.985Z,3.22
2017-06-01T09:33:46.117Z,2.92
2017-06-01T09:36:13.226Z,2.20
2017-06-01T09:38:40.417Z,2.80
2017-06-01T09:41:07.598Z,2.90
2017-06-01T09:43:34.744Z,3.02
2017-06-01T09:46:02.493Z,2.62
2017-06-01T09:48:29.630Z,2.62
2017-06-01T09:50:56.810Z,2.84
2017-06-01T09:53:23.963Z,2.28
2017-06-01T09:56:11.858Z,2.20
2017-06-01T09:58:53.941Z,2.62
2017-06-01T10:01:21.107Z,2.10
2017-06-01T10:03:48.191Z,2.80
2017-06-01T10:06:15.287Z,2.72
2017-06-01T10:09:11.330Z,4.14
2017-06-01T10:11:38.473Z,2.64
2017-06-01T10:14:05.560Z,3.30
2017-06-01T10:16:33.085Z,2.88
2017-06-01T10:19:13.937Z,2.84
2017-06-01T10:24:41.792Z,2.00
2017-06-01T10:27:12.280Z,2.04
2017-06-01T10:32:40.194Z,2.10
2017-06-01T10:41:09.301Z,2.02
2017-06-01T10:46:37.682Z,2.26
2017-06-01T10:55:06.302Z,2.34
2017-06-01T11:15:39.509Z,2.02
2017-06-01T11:18:13.110Z,2.12
2017-06-01T11:23:41.570Z,1.86
2017-06-01T11:26:08.685Z,1.86
2017-06-01T11:28:35.782Z,1.60
2017-06-01T11:31:05.258Z,2.48
2017-06-01T11:33:32.825Z,1.66
2017-06-01T11:36:00.196Z,1.50
2017-06-01T11:38:27.647Z,1.54
2017-06-01T11:40:58.102Z,1.90
2017-06-01T11:43:25.206Z,1.88
2017-06-01T11:46:12.829Z,1.92
2017-06-01T11:48:40.081Z,1.70
2017-06-01T11:51:07.186Z,1.84
2017-06-01T11:53:34.311Z,1.88
2017-06-01T11:56:05.522Z,1.60
2017-06-01T11:58:34.346Z,1.60
2017-06-01T12:01:01.530Z,1.62
2017-06-01T12:03:29.509Z,1.70
2017-06-01T12:05:57.745Z,1.54
2017-06-01T12:08:39.517Z,1.76
2017-06-01T12:11:08.579Z,1.90
2017-06-01T12:16:36.527Z,1.30
2017-06-01T12:19:03.870Z,1.70
2017-06-01T12:27:32.608Z,1.60
2017-06-01T12:29:59.699Z,2.38
2017-06-01T12:35:27.659Z,1.58
2017-06-01T12:38:12.145Z,1.46
2017-06-01T12:40:39.307Z,1.60
2017-06-01T12:43:06.389Z,1.44
2017-06-01T12:45:33.515Z,1.62
2017-06-01T12:48:00.701Z,2.58
2017-06-01T12:50:27.796Z,1.52
2017-06-01T12:52:54.895Z,2.68
2017-06-01T12:55:22.024Z,3.50
2017-06-01T12:57:49.105Z,3.62
2017-06-01T13:00:28.479Z,2.30
2017-06-01T13:02:55.573Z,4.84
2017-06-01T13:05:22.657Z,2.60
2017-06-01T13:07:49.809Z,2.98
2017-06-01T13:10:16.912Z,3.96
2017-06-01T13:12:43.997Z,5.72
2017-06-01T13:15:11.808Z,1.64
2017-06-01T13:17:38.897Z,1.52
2017-06-01T13:20:06.195Z,1.44
2017-06-01T13:25:34.908Z,1.46
2017-06-01T13:28:01.998Z,1.40
2017-06-01T13:30:29.106Z,1.74
2017-06-01T13:33:13.230Z,1.96
2017-06-01T13:35:40.920Z,1.50
2017-06-01T13:38:07.993Z,1.58
2017-06-01T13:40:56.588Z,2.24
2017-06-01T13:43:23.730Z,2.06
2017-06-01T13:45:50.886Z,1.64
2017-06-01T13:48:18.004Z,2.02
2017-06-01T13:50:59.145Z,1.92
2017-06-01T13:53:26.274Z,1.98
2017-06-01T13:55:53.366Z,2.56
2017-06-01T13:58:20.652Z,2.04
2017-06-01T14:00:58.749Z,2.00
2017-06-01T14:06:26.666Z,1.90
2017-06-01T14:09:14.254Z,1.82
2017-06-01T14:11:41.418Z,1.82
2017-06-01T14:14:12.401Z,2.06
2017-06-01T14:16:39.489Z,1.40
2017-06-01T14:19:13.177Z,1.82
2017-06-01T14:21:40.874Z,2.32
2017-06-01T14:24:08.055Z,1.70
2017-06-01T14:33:00.789Z,1.94
2017-06-01T14:38:29.211Z,2.02
2017-06-01T14:40:58.454Z,1.88
2017-06-01T14:46:26.857Z,2.04
2017-06-01T14:49:14.106Z,1.66
2017-06-01T14:52:12.790Z,2.02
2017-06-01T14:54:53.602Z,1.96
2017-06-01T14:57:20.689Z,1.56
2017-06-01T14:59:47.817Z,1.94
2017-06-01T15:02:14.933Z,1.66
2017-06-01T15:04:42.108Z,1.88
2017-06-01T15:10:11.689Z,2.26
2017-06-01T15:18:40.275Z,2.38
2017-06-01T15:21:07.373Z,1.92
2017-06-01T15:26:35.841Z,1.76
2017-06-01T15:29:02.977Z,2.06
2017-06-01T15:34:31.398Z,2.00
2017-06-01T15:37:12.157Z,2.02
2017-06-01T15:43:00.528Z,2.08
2017-06-01T15:48:28.520Z,2.02
2017-06-01T15:50:59.118Z,2.00
2017-06-01T15:56:26.918Z,1.90
2017-06-01T15:59:12.038Z,1.98
2017-06-01T16:02:11.579Z,2.00
2017-06-01T16:04:38.723Z,1.54
2017-06-01T16:07:05.787Z,2.18
2017-06-01T16:27:37.943Z,2.28
2017-06-01T16:30:05.146Z,2.08
2017-06-01T16:32:32.258Z,2.54
2017-06-01T16:35:12.989Z,1.74
2017-06-01T16:37:40.069Z,1.82
2017-06-01T16:40:14.149Z,1.94
2017-06-01T16:42:41.274Z,2.30
2017-06-01T16:45:08.438Z,2.52
2017-06-01T16:47:35.584Z,1.98
2017-06-01T16:50:02.687Z,2.00
2017-06-01T16:52:29.770Z,2.10
2017-06-01T16:54:57.694Z,2.40
2017-06-01T17:00:57.649Z,2.18
2017-06-01T17:09:20.493Z,2.08
2017-06-01T17:12:12.030Z,1.92
2017-06-01T17:20:58.256Z,2.84
2017-06-01T17:23:53.666Z,1.88
2017-06-01T17:32:36.011Z,2.30
2017-06-01T17:40:57.851Z,1.84
2017-06-01T17:52:27.804Z,2.10
2017-06-01T17:55:12.270Z,2.38
2017-06-01T18:00:40.630Z,2.08
2017-06-01T18:03:08.014Z,1.92
2017-06-01T18:11:37.150Z,1.40
2017-06-01T18:14:04.214Z,2.22
2017-06-01T18:22:33.094Z,1.98
2017-06-01T18:25:13.454Z,1.88
2017-06-01T18:27:41.561Z,1.80
2017-06-01T18:30:12.503Z,1.78
2017-06-01T18:35:41.315Z,1.50
2017-06-01T18:38:13.306Z,1.68
2017-06-01T18:40:57.728Z,1.68
2017-06-01T18:49:26.443Z,3.38
2017-06-01T18:51:54.655Z,3.40
2017-06-01T18:54:21.886Z,2.66
2017-06-01T18:56:49.057Z,2.58
2017-06-01T18:59:16.714Z,2.46
2017-06-01T19:01:43.843Z,2.50
2017-06-01T19:04:10.934Z,2.00
2017-06-01T19:09:38.806Z,2.98
2017-06-01T19:12:12.355Z,3.42
2017-06-01T19:14:39.497Z,2.70
2017-06-01T19:17:06.590Z,2.72
2017-06-01T19:22:35.324Z,2.52
2017-06-01T19:25:10.003Z,2.98
2017-06-01T19:30:58.265Z,2.40
2017-06-01T19:33:25.978Z,2.80
2017-06-01T19:36:13.098Z,2.78
2017-06-01T19:38:40.350Z,2.84
2017-06-01T19:41:07.541Z,2.98
2017-06-01T19:46:35.986Z,2.72
2017-06-01T19:49:03.073Z,3.86
2017-06-01T19:51:30.352Z,2.94
2017-06-01T19:53:57.892Z,2.62
2017-06-01T19:56:25.604Z,2.70
2017-06-01T19:58:52.711Z,2.80
2017-06-01T20:01:19.843Z,2.88
2017-06-01T20:07:12.087Z,3.08
2017-06-01T20:09:39.297Z,3.08
2017-06-01T20:12:06.374Z,2.84
2017-06-01T20:14:33.543Z,2.80
2017-06-01T20:17:00.649Z,3.08
2017-06-01T20:19:55.109Z,2.88
2017-06-01T20:22:22.258Z,3.06
2017-06-01T20:25:11.717Z,2.86
2017-06-01T20:27:38.809Z,2.52
2017-06-01T20:30:05.912Z,2.60
2017-06-01T20:32:33.048Z,2.70
2017-06-01T20:35:00.494Z,2.92
2017-06-01T20:37:27.580Z,2.42
2017-06-01T20:39:54.696Z,3.08
2017-06-01T20:42:21.813Z,2.96
2017-06-01T20:44:48.893Z,2.38
2017-06-01T20:47:16.024Z,3.02
2017-06-01T20:49:43.110Z,3.12
2017-06-01T20:52:13.789Z,4.04
2017-06-01T20:54:40.923Z,3.54
2017-06-01T20:57:22.943Z,2.94
2017-06-01T20:59:50.062Z,3.16
2017-06-01T21:02:17.150Z,3.18
2017-06-01T21:04:44.239Z,3.04
2017-06-01T21:07:11.360Z,3.30
2017-06-01T21:09:38.463Z,2.78
2017-06-01T21:12:06.213Z,3.42
2017-06-01T21:14:33.333Z,4.50
2017-06-01T21:17:00.417Z,3.02
2017-06-01T21:22:28.217Z,3.22
2017-06-01T21:24:55.347Z,2.88
2017-06-01T21:27:22.435Z,3.08
2017-06-01T21:29:49.505Z,3.80
2017-06-01T21:32:27.819Z,3.02
2017-06-01T21:35:09.947Z,3.30
2017-06-01T21:37:37.107Z,3.72
2017-06-01T21:40:04.218Z,3.12
2017-06-01T21:42:31.900Z,3.60
2017-06-01T21:45:13.967Z,3.30
2017-06-01T21:47:41.071Z,4.88
2017-06-01T21:50:08.189Z,3.84
2017-06-01T21:52:35.301Z,3.22
2017-06-01T21:55:13.024Z,3.22
2017-06-01T21:57:40.807Z,3.06
2017-06-01T22:00:07.938Z,3.38
2017-06-01T22:02:35.028Z,3.20
2017-06-01T22:05:02.173Z,3.52
2017-06-01T22:10:30.086Z,3.74
2017-06-01T22:12:57.197Z,3.48
2017-06-01T22:15:24.341Z,3.38
2017-06-01T22:17:51.450Z,4.08
2017-06-01T22:20:18.587Z,3.34
2017-06-01T22:23:13.265Z,3.38
2017-06-01T22:25:40.393Z,3.82
2017-06-01T22:28:07.491Z,3.56
2017-06-01T22:30:34.567Z,3.84
2017-06-01T22:33:01.691Z,4.06
2017-06-01T22:35:28.772Z,3.30
2017-06-01T22:37:55.899Z,3.34
2017-06-01T22:40:23.604Z,3.52
2017-06-01T22:42:50.687Z,3.82
2017-06-01T22:45:17.828Z,4.00
2017-06-01T22:47:44.910Z,4.04
2017-06-01T22:50:12.039Z,4.14
2017-06-01T22:52:39.240Z,3.74
2017-06-01T22:55:13.280Z,3.32
2017-06-01T22:57:40.397Z,3.58
2017-06-01T23:00:07.474Z,4.80
2017-06-01T23:02:34.553Z,3.72
2017-06-01T23:05:14.666Z,3.78
2017-06-01T23:08:13.303Z,3.12
2017-06-01T23:10:40.406Z,3.88
2017-06-01T23:13:14.344Z,3.50
2017-06-01T23:15:41.458Z,4.20
2017-06-01T23:18:08.611Z,3.74
2017-06-01T23:20:35.716Z,3.50
2017-06-01T23:23:13.059Z,3.70
2017-06-01T23:25:40.145Z,3.88
2017-06-01T23:28:07.232Z,4.06
2017-06-01T23:30:34.369Z,4.10
2017-06-01T23:33:01.449Z,4.60
2017-06-01T23:35:28.533Z,3.58
2017-06-01T23:37:55.650Z,3.14
2017-06-01T23:40:22.787Z,3.30
2017-06-01T23:42:49.893Z,4.90
2017-06-01T23:45:16.969Z,3.70
2017-06-01T23:48:12.249Z,3.48
2017-06-01T23:50:39.414Z,4.26
2017-06-01T23:53:06.510Z,3.70
2017-06-01T23:58:33.994Z,3.66
